Time;durP1;ratioP1;P1;durP2;ratioP2;P2;SDS_P1;SDS_P2;PMS_P1;PMS_P2;Temp;Humidity;BMP_temperature;BMP_pressure;BME280_temperature;BME280_humidity;BME280_pressure;Samples;Min_cycle;Max_cycle;Signal;HPM_P1;HPM_P2
2022/09/10 00:01:54;;;;;;;9.48;5.32;;;;;;;;;;5056075;28;20052;-51
2022/09/10 00:04:24;;;;;;;8.85;4.72;;;;;;;;;;5055814;28;20394;-54
2022/09/10 00:06:50;;;;;;;11.10;7.20;;;;;;;;;;5071264;28;20057;-53
2022/09/10 00:09:27;;;;;;;11.38;6.72;;;;;;;;;;5075536;28;20416;-53
2022/09/10 00:11:57;;;;;;;10.73;6.15;;;;;;;;;;5074237;28;20048;-51
2022/09/10 00:14:40;;;;;;;10.73;5.78;;;;;;;;;;5075875;28;20052;-50
2022/09/10 00:17:10;;;;;;;9.88;5.10;;;;;;;;;;5075022;28;20127;-54
2022/09/10 00:19:39;;;;;;;9.43;5.82;;;;;;;;;;5075809;28;20045;-53
2022/09/10 00:22:06;;;;;;;9.13;5.95;;;;;;;;;;5075541;28;20048;-53
2022/09/10 00:24:33;;;;;;;10.75;6.28;;;;;;;;;;5075785;28;20057;-52
2022/09/10 00:27:03;;;;;;;7.70;5.40;;;;;;;;;;5072871;28;20053;-53
2022/09/10 00:29:37;;;;;;;7.95;4.93;;;;;;;;;;5075615;28;20060;-52
2022/09/10 00:32:07;;;;;;;8.70;5.70;;;;;;;;;;5075188;28;20441;-53
2022/09/10 00:34:37;;;;;;;8.40;5.47;;;;;;;;;;5064613;28;20114;-52
2022/09/10 00:37:04;;;;;;;8.90;6.15;;;;;;;;;;5055386;28;20095;-52
2022/09/10 00:39:33;;;;;;;7.50;4.72;;;;;;;;;;5054939;28;20053;-50
2022/09/10 00:42:01;;;;;;;9.45;5.72;;;;;;;;;;5055084;28;20044;-53
2022/09/10 00:44:48;;;;;;;10.93;6.38;;;;;;;;;;5055131;28;20072;-51
2022/09/10 00:47:23;;;;;;;9.20;5.57;;;;;;;;;;5052978;28;20045;-53
2022/09/10 00:49:55;;;;;;;7.95;4.60;;;;;;;;;;5054480;28;20052;-51
2022/09/10 00:52:23;;;;;;;7.38;4.82;;;;;;;;;;5058535;28;20242;-52
2022/09/10 00:54:51;;;;;;;11.27;5.78;;;;;;;;;;5074881;28;20056;-53
2022/09/10 00:57:27;;;;;;;9.85;6.00;;;;;;;;;;5074662;28;20393;-50
2022/09/10 00:59:56;;;;;;;11.43;7.07;;;;;;;;;;5075149;28;20063;-53
2022/09/10 01:02:37;;;;;;;9.52;5.78;;;;;;;;;;5074828;28;20052;-54
2022/09/10 01:05:05;;;;;;;11.90;6.35;;;;;;;;;;5074888;28;20127;-53
2022/09/10 01:07:35;;;;;;;11.25;6.63;;;;;;;;;;5075125;28;20055;-53
2022/09/10 01:10:12;;;;;;;10.35;5.65;;;;;;;;;;5074891;28;20044;-54
2022/09/10 01:12:49;;;;;;;10.18;6.43;;;;;;;;;;5074124;28;20056;-50
2022/09/10 01:15:21;;;;;;;10.55;6.35;;;;;;;;;;5074765;28;20048;-50
2022/09/10 01:17:58;;;;;;;9.05;5.82;;;;;;;;;;5074767;28;20052;-51
2022/09/10 01:21:01;;;;;;;9.23;5.85;;;;;;;;;;5074452;28;20057;-50
2022/09/10 01:23:46;;;;;;;10.32;6.53;;;;;;;;;;5073969;28;20056;-53
2022/09/10 01:26:26;;;;;;;10.70;6.35;;;;;;;;;;5071709;28;20537;-52
2022/09/10 01:29:02;;;;;;;11.55;6.70;;;;;;;;;;5074523;28;20091;-52
2022/09/10 01:31:38;;;;;;;11.50;5.93;;;;;;;;;;5074156;28;20676;-53
2022/09/10 01:34:15;;;;;;;9.25;5.47;;;;;;;;;;5067728;28;20354;-51
2022/09/10 01:36:46;;;;;;;9.68;6.35;;;;;;;;;;5070180;28;20453;-50
2022/09/10 01:39:26;;;;;;;11.68;7.25;;;;;;;;;;5073969;28;20063;-51
2022/09/10 01:41:57;;;;;;;9.80;5.15;;;;;;;;;;5074045;28;20044;-51
2022/09/10 01:44:50;;;;;;;12.00;7.00;;;;;;;;;;5073964;28;20048;-52
2022/09/10 01:47:26;;;;;;;10.68;5.28;;;;;;;;;;5073950;28;20118;-52
2022/09/10 01:50:03;;;;;;;10.65;5.88;;;;;;;;;;5073592;28;20381;-53
2022/09/10 01:52:42;;;;;;;13.98;6.53;;;;;;;;;;5064959;28;20044;-53
2022/09/10 01:55:19;;;;;;;10.18;5.55;;;;;;;;;;5073558;28;20472;-53
2022/09/10 01:57:55;;;;;;;10.15;6.20;;;;;;;;;;5073341;28;20058;-53
2022/09/10 02:00:34;;;;;;;13.73;7.22;;;;;;;;;;5073587;28;20052;-53
2022/09/10 02:03:11;;;;;;;13.93;7.25;;;;;;;;;;5073250;28;20465;-52
2022/09/10 02:05:41;;;;;;;13.20;6.70;;;;;;;;;;5073856;28;20079;-53
2022/09/10 02:08:19;;;;;;;9.18;5.90;;;;;;;;;;5073700;28;20075;-52
2022/09/10 02:10:54;;;;;;;8.02;5.40;;;;;;;;;;5073593;28;20052;-52
2022/09/10 02:13:22;;;;;;;12.07;6.25;;;;;;;;;;5073195;28;20052;-51
2022/09/10 02:15:58;;;;;;;12.30;6.55;;;;;;;;;;5073372;28;20048;-50
2022/09/10 02:18:28;;;;;;;13.93;7.00;;;;;;;;;;5073589;28;20048;-52
2022/09/10 02:20:56;;;;;;;11.60;5.70;;;;;;;;;;5073576;28;20079;-50
2022/09/10 02:23:31;;;;;;;10.38;7.50;;;;;;;;;;5073269;28;20040;-53
2022/09/10 02:26:01;;;;;;;9.82;6.30;;;;;;;;;;5070969;28;20072;-50
2022/09/10 02:28:30;;;;;;;11.70;6.40;;;;;;;;;;5073337;28;20052;-50
2022/09/10 02:31:11;;;;;;;8.13;4.85;;;;;;;;;;5072785;28;20106;-51
2022/09/10 02:33:39;;;;;;;10.23;5.72;;;;;;;;;;5069786;28;20049;-50
2022/09/10 02:36:07;;;;;;;11.05;6.90;;;;;;;;;;5050727;28;20045;-54
2022/09/10 02:38:34;;;;;;;12.43;6.65;;;;;;;;;;5052757;28;20482;-53
2022/09/10 02:41:04;;;;;;;10.82;6.18;;;;;;;;;;5052913;28;20514;-53
2022/09/10 02:43:36;;;;;;;12.38;7.00;;;;;;;;;;5052770;28;20056;-52
2022/09/10 02:46:15;;;;;;;9.30;5.50;;;;;;;;;;5052833;28;20469;-51
2022/09/10 02:48:44;;;;;;;10.75;5.80;;;;;;;;;;5065570;28;20056;-53
2022/09/10 02:51:12;;;;;;;11.90;7.32;;;;;;;;;;5073330;28;20171;-50
2022/09/10 02:53:42;;;;;;;9.45;6.00;;;;;;;;;;5058759;28;20067;-52
2022/09/10 02:56:12;;;;;;;10.65;6.63;;;;;;;;;;5052887;28;20048;-50
2022/09/10 02:58:41;;;;;;;10.98;6.18;;;;;;;;;;5052963;28;20111;-53
2022/09/10 03:01:21;;;;;;;9.98;6.15;;;;;;;;;;5052942;28;20056;-53
2022/09/10 03:03:50;;;;;;;12.73;6.50;;;;;;;;;;5053075;28;20045;-52
2022/09/10 03:06:20;;;;;;;11.00;6.18;;;;;;;;;;5053000;28;20053;-50
2022/09/10 03:08:50;;;;;;;10.43;6.22;;;;;;;;;;5052896;28;20048;-50
2022/09/10 03:11:22;;;;;;;7.32;4.45;;;;;;;;;;5059264;28;20044;-50
2022/09/10 03:13:52;;;;;;;10.32;6.28;;;;;;;;;;5076718;28;20049;-52
2022/09/10 03:16:35;;;;;;;12.45;5.80;;;;;;;;;;5077013;28;20041;-54
2022/09/10 03:19:02;;;;;;;11.60;6.82;;;;;;;;;;5076676;28;20350;-52
2022/09/10 03:21:33;;;;;;;12.15;7.15;;;;;;;;;;5076652;28;20044;-52
2022/09/10 03:24:01;;;;;;;13.45;6.43;;;;;;;;;;5076812;28;20418;-52
2022/09/10 03:26:29;;;;;;;9.75;6.07;;;;;;;;;;5074386;28;20056;-54
2022/09/10 03:28:58;;;;;;;10.80;6.45;;;;;;;;;;5076646;28;20052;-54
2022/09/10 03:31:35;;;;;;;9.55;5.78;;;;;;;;;;5076606;28;20053;-50
2022/09/10 03:34:05;;;;;;;11.90;6.90;;;;;;;;;;5070127;28;20457;-54
2022/09/10 03:36:34;;;;;;;10.25;6.43;;;;;;;;;;5056209;28;20057;-51
2022/09/10 03:39:02;;;;;;;8.85;5.00;;;;;;;;;;5056445;28;20092;-52
2022/09/10 03:41:31;;;;;;;10.48;6.25;;;;;;;;;;5055097;28;20075;-52
2022/09/10 03:44:00;;;;;;;11.90;7.10;;;;;;;;;;5060928;28;20060;-52
2022/09/10 03:46:38;;;;;;;11.80;6.22;;;;;;;;;;5076187;28;20062;-52
2022/09/10 03:49:07;;;;;;;10.63;6.68;;;;;;;;;;5076013;28;20131;-51
2022/09/10 03:51:35;;;;;;;7.53;4.50;;;;;;;;;;5075709;28;20055;-52
2022/09/10 03:54:05;;;;;;;10.20;6.35;;;;;;;;;;5056038;28;20049;-53
2022/09/10 03:56:35;;;;;;;11.93;6.50;;;;;;;;;;5056378;28;20157;-50
2022/09/10 03:59:05;;;;;;;10.80;7.25;;;;;;;;;;5068670;28;20518;-54
2022/09/10 04:01:40;;;;;;;8.25;4.97;;;;;;;;;;5075956;28;20060;-53
2022/09/10 04:04:08;;;;;;;12.05;7.35;;;;;;;;;;5076113;28;20044;-53
2022/09/10 04:06:36;;;;;;;9.07;4.80;;;;;;;;;;5075960;28;20113;-51
2022/09/10 04:09:05;;;;;;;10.95;7.35;;;;;;;;;;5075440;28;20056;-50
2022/09/10 04:11:35;;;;;;;10.77;5.70;;;;;;;;;;5075543;28;20094;-50
2022/09/10 04:16:46;;;;;;;7.90;5.25;;;;;;;;;;5075619;28;20063;-51
2022/09/10 04:19:15;;;;;;;10.18;6.32;;;;;;;;;;5075470;28;20110;-53
2022/09/10 04:21:46;;;;;;;10.88;6.60;;;;;;;;;;5074919;28;20060;-50
2022/09/10 04:24:16;;;;;;;12.57;7.05;;;;;;;;;;5075076;28;20045;-52
2022/09/10 04:26:46;;;;;;;12.23;7.72;;;;;;;;;;5067658;28;20049;-52
2022/09/10 04:29:16;;;;;;;10.45;6.20;;;;;;;;;;5055118;28;20053;-52
2022/09/10 04:31:57;;;;;;;12.98;6.90;;;;;;;;;;5054979;28;20041;-50
2022/09/10 04:34:27;;;;;;;11.80;7.53;;;;;;;;;;5054812;28;20422;-50
2022/09/10 04:36:57;;;;;;;11.45;7.05;;;;;;;;;;5055677;28;20053;-50
2022/09/10 04:39:28;;;;;;;12.73;7.97;;;;;;;;;;5055396;28;20057;-50
2022/09/10 04:41:58;;;;;;;13.98;7.78;;;;;;;;;;5073953;28;20465;-50
2022/09/10 04:47:20;;;;;;;14.88;8.05;;;;;;;;;;5075259;28;20058;-50
2022/09/10 04:49:48;;;;;;;14.02;7.43;;;;;;;;;;5074992;28;20496;-50
2022/09/10 04:52:16;;;;;;;14.27;7.07;;;;;;;;;;5072305;28;20360;-51
2022/09/10 04:54:46;;;;;;;11.30;6.43;;;;;;;;;;5063213;28;20071;-50
2022/09/10 04:57:16;;;;;;;11.80;6.38;;;;;;;;;;5075155;28;20052;-50
2022/09/10 04:59:45;;;;;;;17.83;7.93;;;;;;;;;;5075056;28;20044;-53
2022/09/10 05:02:26;;;;;;;10.18;5.95;;;;;;;;;;5074920;28;20048;-53
2022/09/10 05:04:53;;;;;;;14.45;7.82;;;;;;;;;;5074655;28;20048;-53
2022/09/10 05:07:20;;;;;;;16.00;8.02;;;;;;;;;;5074487;28;20465;-51
2022/09/10 05:09:50;;;;;;;11.20;6.53;;;;;;;;;;5091467;28;20052;-51
2022/09/10 05:12:18;;;;;;;17.48;7.15;;;;;;;;;;5094985;28;20055;-53
2022/09/10 05:14:48;;;;;;;11.30;6.85;;;;;;;;;;5095124;28;20048;-50
2022/09/10 05:17:23;;;;;;;12.70;8.05;;;;;;;;;;5094933;28;20630;-53
2022/09/10 05:19:51;;;;;;;11.05;7.05;;;;;;;;;;5095049;28;20080;-53
2022/09/10 05:22:20;;;;;;;11.57;6.75;;;;;;;;;;5094918;28;20056;-53
2022/09/10 05:24:50;;;;;;;12.85;5.30;;;;;;;;;;5094785;28;20131;-53
2022/09/10 05:27:18;;;;;;;11.55;6.45;;;;;;;;;;5068153;28;20076;-53
2022/09/10 05:29:47;;;;;;;20.02;8.30;;;;;;;;;;5054528;28;20118;-53
2022/09/10 05:32:15;;;;;;;12.50;7.32;;;;;;;;;;5053693;28;20128;-52
2022/09/10 05:34:56;;;;;;;10.57;6.70;;;;;;;;;;5054319;28;20048;-51
2022/09/10 05:37:25;;;;;;;12.50;6.45;;;;;;;;;;5053968;28;20091;-53
2022/09/10 05:39:55;;;;;;;9.60;6.00;;;;;;;;;;5054405;28;20053;-50
2022/09/10 05:42:23;;;;;;;17.70;8.50;;;;;;;;;;5054171;28;20053;-53
2022/09/10 05:44:53;;;;;;;13.52;8.13;;;;;;;;;;5054262;28;20103;-54
2022/09/10 05:47:21;;;;;;;11.88;7.22;;;;;;;;;;5053590;28;20099;-49
2022/09/10 05:49:56;;;;;;;9.10;5.97;;;;;;;;;;5054277;28;20052;-52
2022/09/10 05:52:25;;;;;;;10.98;6.38;;;;;;;;;;5057659;28;20403;-51
2022/09/10 05:54:55;;;;;;;9.60;5.78;;;;;;;;;;5074003;28;20083;-52
2022/09/10 05:57:21;;;;;;;11.10;6.72;;;;;;;;;;5074095;28;20056;-52
2022/09/10 05:59:51;;;;;;;10.73;6.28;;;;;;;;;;5073426;28;20052;-50
2022/09/10 06:02:20;;;;;;;9.52;5.30;;;;;;;;;;5073924;28;20066;-53
2022/09/10 06:04:50;;;;;;;9.05;6.22;;;;;;;;;;5073754;28;20071;-53
2022/09/10 06:07:20;;;;;;;11.45;6.63;;;;;;;;;;5073423;28;20447;-51
2022/09/10 06:09:50;;;;;;;13.35;6.68;;;;;;;;;;5073740;28;20062;-53
2022/09/10 06:12:20;;;;;;;7.22;4.53;;;;;;;;;;5073469;28;20122;-51
2022/09/10 06:14:51;;;;;;;9.77;5.85;;;;;;;;;;5073657;28;20051;-53
2022/09/10 06:17:18;;;;;;;10.70;6.57;;;;;;;;;;5073572;28;20059;-52
2022/09/10 06:19:46;;;;;;;9.98;5.78;;;;;;;;;;5073493;28;20048;-50
2022/09/10 06:22:13;;;;;;;16.35;7.13;;;;;;;;;;5073459;28;20127;-50
2022/09/10 06:24:55;;;;;;;11.32;7.00;;;;;;;;;;5073538;28;20106;-50
2022/09/10 06:27:25;;;;;;;8.98;5.88;;;;;;;;;;5071111;28;20076;-50
2022/09/10 06:29:51;;;;;;;11.27;5.88;;;;;;;;;;5073644;28;20109;-50
2022/09/10 06:32:21;;;;;;;8.38;4.65;;;;;;;;;;5073410;28;20049;-49
2022/09/10 06:34:51;;;;;;;12.15;6.13;;;;;;;;;;5060816;28;20049;-53
2022/09/10 06:37:23;;;;;;;12.73;5.75;;;;;;;;;;5052935;28;20049;-52
2022/09/10 06:39:55;;;;;;;10.63;6.78;;;;;;;;;;5052851;28;20067;-50
2022/09/10 06:42:24;;;;;;;10.05;6.00;;;;;;;;;;5053120;28;20053;-52
2022/09/10 06:44:51;;;;;;;7.00;4.53;;;;;;;;;;5052282;28;20045;-53
2022/09/10 06:47:19;;;;;;;12.32;6.80;;;;;;;;;;5052591;28;20065;-52
2022/09/10 06:49:49;;;;;;;9.02;5.68;;;;;;;;;;5052628;28;20053;-53
2022/09/10 06:52:19;;;;;;;13.05;6.07;;;;;;;;;;5055575;28;20147;-50
2022/09/10 06:54:50;;;;;;;11.32;6.30;;;;;;;;;;5073197;28;20179;-52
2022/09/10 06:57:22;;;;;;;11.35;5.82;;;;;;;;;;5072873;28;20083;-51
2022/09/10 06:59:52;;;;;;;10.13;5.50;;;;;;;;;;5073349;28;20109;-50
2022/09/10 07:02:22;;;;;;;6.75;3.92;;;;;;;;;;5073067;28;20098;-50
2022/09/10 07:04:52;;;;;;;10.40;5.93;;;;;;;;;;5073333;28;20130;-50
2022/09/10 07:07:22;;;;;;;8.45;4.40;;;;;;;;;;5072713;28;20347;-53
2022/09/10 07:09:54;;;;;;;12.38;7.07;;;;;;;;;;5073420;28;20133;-52
2022/09/10 07:12:33;;;;;;;12.25;6.55;;;;;;;;;;5072595;28;20149;-50
2022/09/10 07:15:03;;;;;;;10.50;6.25;;;;;;;;;;5072934;28;20044;-50
2022/09/10 07:17:34;;;;;;;10.93;6.07;;;;;;;;;;5072737;28;20056;-53
2022/09/10 07:20:05;;;;;;;14.15;7.28;;;;;;;;;;5072944;28;20052;-50
2022/09/10 07:22:40;;;;;;;11.13;6.18;;;;;;;;;;5072391;28;20063;-52
2022/09/10 07:25:09;;;;;;;13.20;6.30;;;;;;;;;;5072548;28;20475;-49
2022/09/10 07:27:46;;;;;;;11.05;6.60;;;;;;;;;;5064148;28;20141;-49
2022/09/10 07:30:14;;;;;;;11.45;6.45;;;;;;;;;;5060612;28;20057;-50
2022/09/10 07:32:42;;;;;;;11.20;7.00;;;;;;;;;;5052847;28;20056;-50
2022/09/10 07:35:09;;;;;;;9.40;6.40;;;;;;;;;;5052505;28;20045;-52
2022/09/10 07:37:46;;;;;;;14.52;6.82;;;;;;;;;;5059573;28;20377;-53
2022/09/10 07:40:14;;;;;;;15.40;8.10;;;;;;;;;;5071918;28;20052;-53
2022/09/10 07:42:43;;;;;;;13.98;7.60;;;;;;;;;;5072672;28;20063;-50
2022/09/10 07:45:14;;;;;;;13.07;6.93;;;;;;;;;;5072407;28;20433;-50
2022/09/10 07:47:43;;;;;;;10.10;6.65;;;;;;;;;;5072764;28;20144;-53
2022/09/10 07:50:11;;;;;;;13.35;6.60;;;;;;;;;;5072548;28;20056;-53
2022/09/10 07:52:40;;;;;;;12.65;7.55;;;;;;;;;;5056288;28;20063;-49
2022/09/10 07:55:09;;;;;;;10.18;5.90;;;;;;;;;;5058825;28;20079;-50
2022/09/10 07:57:38;;;;;;;10.80;6.82;;;;;;;;;;5062434;28;20056;-50
2022/09/10 08:00:24;;;;;;;11.82;7.22;;;;;;;;;;5067151;28;20063;-50
2022/09/10 08:03:05;;;;;;;11.83;7.57;;;;;;;;;;5072461;28;20488;-50
2022/09/10 08:05:33;;;;;;;17.33;7.65;;;;;;;;;;5065553;28;20369;-50
2022/09/10 08:08:01;;;;;;;11.63;7.68;;;;;;;;;;5068889;28;20640;-54
2022/09/10 08:10:31;;;;;;;14.57;8.00;;;;;;;;;;5074669;28;20539;-54
2022/09/10 08:12:59;;;;;;;16.15;8.30;;;;;;;;;;5058817;28;20064;-50
2022/09/10 08:15:29;;;;;;;11.52;6.72;;;;;;;;;;5062869;28;20045;-51
2022/09/10 08:17:59;;;;;;;12.60;7.95;;;;;;;;;;5063742;28;20450;-50
2022/09/10 08:20:27;;;;;;;16.00;8.77;;;;;;;;;;5071135;28;20048;-54
2022/09/10 08:22:56;;;;;;;12.95;6.85;;;;;;;;;;5058520;28;20477;-51
2022/09/10 08:25:25;;;;;;;11.85;7.47;;;;;;;;;;5068307;28;20076;-50
2022/09/10 08:27:54;;;;;;;12.10;6.82;;;;;;;;;;5057685;28;20049;-51
2022/09/10 08:30:23;;;;;;;13.80;7.65;;;;;;;;;;5070666;28;20052;-53
2022/09/10 08:32:51;;;;;;;13.18;8.18;;;;;;;;;;5057051;28;20489;-52
2022/09/10 08:35:23;;;;;;;15.98;8.40;;;;;;;;;;5058634;28;20045;-49
2022/09/10 08:37:51;;;;;;;14.55;8.55;;;;;;;;;;5060935;28;20080;-50
2022/09/10 08:40:18;;;;;;;16.30;8.43;;;;;;;;;;5060498;28;20070;-52
2022/09/10 08:42:47;;;;;;;12.70;6.60;;;;;;;;;;5056373;28;20049;-51
2022/09/10 08:45:17;;;;;;;13.90;7.30;;;;;;;;;;5068930;28;20600;-54
2022/09/10 08:47:52;;;;;;;16.58;9.13;;;;;;;;;;5065076;28;20059;-50
2022/09/10 08:50:26;;;;;;;15.10;7.95;;;;;;;;;;5059892;28;20056;-50
2022/09/10 08:52:56;;;;;;;9.13;5.47;;;;;;;;;;5069406;28;20045;-52
2022/09/10 08:55:28;;;;;;;12.32;6.80;;;;;;;;;;5064540;28;20045;-50
2022/09/10 08:57:58;;;;;;;8.63;4.90;;;;;;;;;;5066330;28;20407;-53
2022/09/10 09:00:29;;;;;;;16.90;8.32;;;;;;;;;;5058946;28;20057;-49
2022/09/10 09:03:05;;;;;;;13.52;6.15;;;;;;;;;;5070880;28;20732;-50
2022/09/10 09:05:42;;;;;;;16.15;8.52;;;;;;;;;;5062772;28;20485;-51
2022/09/10 09:08:11;;;;;;;15.82;8.75;;;;;;;;;;5063367;28;20132;-50
2022/09/10 09:10:45;;;;;;;11.80;7.55;;;;;;;;;;5058201;28;20079;-50
2022/09/10 09:13:30;;;;;;;13.77;7.43;;;;;;;;;;5068888;28;20041;-52
2022/09/10 09:16:13;;;;;;;13.52;7.35;;;;;;;;;;5065035;28;20052;-50
2022/09/10 09:18:54;;;;;;;12.63;6.63;;;;;;;;;;5057539;28;20057;-49
2022/09/10 09:21:27;;;;;;;11.55;6.95;;;;;;;;;;5067380;28;20052;-51
2022/09/10 09:23:57;;;;;;;13.20;7.65;;;;;;;;;;5065688;28;20052;-51
2022/09/10 09:26:29;;;;;;;14.02;7.47;;;;;;;;;;5060642;28;20037;-53
2022/09/10 09:28:59;;;;;;;13.45;6.95;;;;;;;;;;5063083;28;20045;-49
2022/09/10 09:31:28;;;;;;;11.52;6.00;;;;;;;;;;5053557;28;20049;-51
2022/09/10 09:34:02;;;;;;;14.73;8.00;;;;;;;;;;5053997;28;20084;-49
2022/09/10 09:36:41;;;;;;;14.18;7.50;;;;;;;;;;5053855;28;20103;-48
2022/09/10 09:39:15;;;;;;;12.23;6.55;;;;;;;;;;5065874;28;20056;-51
2022/09/10 09:41:47;;;;;;;12.65;6.95;;;;;;;;;;5053458;28;20392;-51
2022/09/10 09:44:18;;;;;;;11.73;6.65;;;;;;;;;;5061646;28;20372;-49
2022/09/10 09:46:48;;;;;;;10.18;5.95;;;;;;;;;;5061371;28;20067;-51
2022/09/10 09:49:15;;;;;;;13.80;6.97;;;;;;;;;;5053445;28;20068;-48
2022/09/10 09:51:46;;;;;;;12.50;7.10;;;;;;;;;;5053598;28;20049;-53
2022/09/10 09:54:17;;;;;;;14.20;7.93;;;;;;;;;;5058338;28;20056;-53
2022/09/10 09:56:46;;;;;;;16.45;9.55;;;;;;;;;;5057752;28;20044;-51
2022/09/10 09:59:24;;;;;;;13.10;7.78;;;;;;;;;;5063151;28;20045;-52
2022/09/10 10:01:53;;;;;;;14.95;8.77;;;;;;;;;;5054399;28;20060;-54
2022/09/10 10:04:22;;;;;;;12.63;7.30;;;;;;;;;;5068530;28;20049;-51
2022/09/10 10:06:56;;;;;;;14.50;7.88;;;;;;;;;;5069515;28;20067;-52
2022/09/10 10:09:26;;;;;;;13.10;8.32;;;;;;;;;;5060453;28;20045;-50
2022/09/10 10:12:04;;;;;;;16.58;9.52;;;;;;;;;;5061719;28;20053;-54
2022/09/10 10:14:44;;;;;;;16.05;9.00;;;;;;;;;;5058698;28;20060;-51
2022/09/10 10:17:28;;;;;;;16.85;10.15;;;;;;;;;;5053034;28;20183;-51
2022/09/10 10:20:01;;;;;;;14.90;8.20;;;;;;;;;;5064348;28;20048;-51
2022/09/10 10:22:30;;;;;;;9.55;5.93;;;;;;;;;;5061537;28;20135;-51
2022/09/10 10:24:57;;;;;;;15.70;9.93;;;;;;;;;;5053208;28;20449;-51
2022/09/10 10:27:31;;;;;;;13.57;7.70;;;;;;;;;;5052732;28;20765;-50
2022/09/10 10:30:01;;;;;;;16.45;10.18;;;;;;;;;;5052787;28;20049;-54
2022/09/10 10:32:40;;;;;;;12.27;7.00;;;;;;;;;;5053154;28;20053;-52
2022/09/10 10:35:22;;;;;;;13.73;8.30;;;;;;;;;;5052581;28;20044;-52
2022/09/10 10:37:59;;;;;;;14.35;8.43;;;;;;;;;;5052568;28;20446;-53
2022/09/10 10:40:30;;;;;;;12.20;6.93;;;;;;;;;;5059127;28;20075;-50
2022/09/10 10:43:01;;;;;;;15.07;8.23;;;;;;;;;;5052851;28;20053;-50
2022/09/10 10:45:43;;;;;;;12.00;6.55;;;;;;;;;;5052636;28;20489;-48
2022/09/10 10:48:11;;;;;;;14.15;8.25;;;;;;;;;;5052620;28;20553;-52
2022/09/10 10:50:44;;;;;;;11.52;5.82;;;;;;;;;;5067509;28;20432;-53
2022/09/10 10:53:18;;;;;;;13.82;8.25;;;;;;;;;;5063947;28;20049;-54
2022/09/10 10:55:49;;;;;;;16.80;8.88;;;;;;;;;;5070590;28;20480;-52
2022/09/10 10:58:50;;;;;;;19.48;10.85;;;;;;;;;;5057965;28;20433;-54
2022/09/10 11:01:23;;;;;;;13.15;7.85;;;;;;;;;;5049551;28;20091;-52
2022/09/10 11:03:59;;;;;;;17.42;10.60;;;;;;;;;;5048571;28;20389;-51
2022/09/10 11:06:31;;;;;;;14.07;8.32;;;;;;;;;;5052665;28;20056;-53
2022/09/10 11:09:09;;;;;;;17.90;9.90;;;;;;;;;;5056801;28;20045;-53
2022/09/10 11:11:37;;;;;;;18.05;10.43;;;;;;;;;;5064478;28;20428;-54
2022/09/10 11:14:12;;;;;;;18.40;9.32;;;;;;;;;;5056488;28;20052;-52
2022/09/10 11:16:41;;;;;;;;;;;;;;;;;;5061743;28;20488;-54
2022/09/10 11:19:14;;;;;;;15.50;9.00;;;;;;;;;;5052707;28;20003;-54
2022/09/10 11:21:42;;;;;;;16.63;9.18;;;;;;;;;;5052264;28;20537;-50
2022/09/10 11:24:14;;;;;;;15.73;8.82;;;;;;;;;;5051941;28;20513;-51
2022/09/10 11:26:52;;;;;;;17.77;9.32;;;;;;;;;;5052413;28;20056;-51
2022/09/10 11:29:27;;;;;;;15.63;9.13;;;;;;;;;;5052611;28;20095;-52
2022/09/10 11:31:58;;;;;;;15.07;7.82;;;;;;;;;;5055214;28;20216;-48
2022/09/10 11:34:31;;;;;;;13.93;7.90;;;;;;;;;;5058153;28;20045;-49
2022/09/10 11:37:04;;;;;;;14.32;8.48;;;;;;;;;;5066043;28;20056;-49
2022/09/10 11:39:47;;;;;;;15.68;8.85;;;;;;;;;;5064997;28;20063;-50
2022/09/10 11:42:22;;;;;;;15.07;9.57;;;;;;;;;;5066480;28;20068;-49
2022/09/10 11:44:57;;;;;;;16.08;8.07;;;;;;;;;;5073505;28;20373;-50
2022/09/10 11:47:28;;;;;;;16.45;8.75;;;;;;;;;;5074738;28;20145;-51
2022/09/10 11:50:05;;;;;;;11.70;6.97;;;;;;;;;;5065499;28;20386;-51
2022/09/10 11:52:37;;;;;;;12.68;7.15;;;;;;;;;;5067604;28;20465;-52
2022/09/10 11:55:20;;;;;;;15.82;8.68;;;;;;;;;;5071415;28;20056;-52
2022/09/10 11:57:59;;;;;;;15.43;7.97;;;;;;;;;;5065827;28;20123;-54
2022/09/10 12:00:28;;;;;;;14.05;7.28;;;;;;;;;;5075893;28;20495;-52
2022/09/10 12:03:20;;;;;;;15.88;9.82;;;;;;;;;;5076147;28;20067;-54
2022/09/10 12:06:05;;;;;;;17.27;9.82;;;;;;;;;;5075620;28;20473;-53
2022/09/10 12:08:51;;;;;;;14.35;8.27;;;;;;;;;;5075610;28;20358;-54
2022/09/10 12:11:24;;;;;;;12.88;7.90;;;;;;;;;;5074977;28;20148;-51
2022/09/10 12:13:51;;;;;;;16.38;9.23;;;;;;;;;;5069108;28;20052;-50
2022/09/10 12:16:20;;;;;;;14.68;9.05;;;;;;;;;;5066611;28;20048;-49
2022/09/10 12:18:50;;;;;;;15.20;9.13;;;;;;;;;;5064678;28;20052;-49
2022/09/10 12:21:26;;;;;;;12.70;6.72;;;;;;;;;;5075410;28;20079;-50
2022/09/10 12:24:04;;;;;;;10.18;5.90;;;;;;;;;;5058703;28;20068;-48
2022/09/10 12:26:46;;;;;;;13.02;7.93;;;;;;;;;;5071549;28;20105;-49
2022/09/10 12:29:35;;;;;;;13.13;7.63;;;;;;;;;;5074471;28;20071;-49
2022/09/10 12:32:38;;;;;;;14.40;8.00;;;;;;;;;;5061633;28;20082;-50
2022/09/10 12:35:25;;;;;;;10.27;6.68;;;;;;;;;;5064682;28;20130;-48
2022/09/10 12:38:22;;;;;;;12.70;7.32;;;;;;;;;;5075219;28;20052;-50
2022/09/10 12:40:50;;;;;;;12.63;7.40;;;;;;;;;;5075352;28;20049;-49
2022/09/10 12:43:34;;;;;;;11.23;7.15;;;;;;;;;;5074330;28;20057;-52
2022/09/10 12:46:17;;;;;;;9.13;5.05;;;;;;;;;;5048389;28;20040;-48
2022/09/10 12:48:52;;;;;;;9.43;5.38;;;;;;;;;;5058632;28;20084;-48
2022/09/10 12:51:36;;;;;;;12.13;7.00;;;;;;;;;;5063714;28;20063;-46
2022/09/10 12:54:14;;;;;;;11.48;6.53;;;;;;;;;;5073744;28;20048;-48
2022/09/10 12:57:11;;;;;;;10.80;5.88;;;;;;;;;;5075299;28;20132;-49
2022/09/10 13:00:01;;;;;;;9.75;5.53;;;;;;;;;;5064107;28;20059;-48
2022/09/10 13:02:39;;;;;;;10.75;6.68;;;;;;;;;;5074952;28;20067;-48
2022/09/10 13:05:21;;;;;;;9.07;5.40;;;;;;;;;;5075139;28;20049;-49
2022/09/10 13:08:00;;;;;;;11.05;6.43;;;;;;;;;;5074747;28;20370;-52
2022/09/10 13:10:31;;;;;;;11.27;6.65;;;;;;;;;;5073902;28;20163;-49
2022/09/10 13:13:08;;;;;;;9.75;6.20;;;;;;;;;;5074044;28;20147;-52
2022/09/10 13:15:46;;;;;;;10.63;6.70;;;;;;;;;;5068949;28;20052;-52
2022/09/10 13:18:23;;;;;;;9.18;5.75;;;;;;;;;;5056030;28;20520;-48
2022/09/10 13:20:52;;;;;;;9.52;6.38;;;;;;;;;;5062504;28;20052;-48
2022/09/10 13:23:21;;;;;;;9.35;5.68;;;;;;;;;;5074495;28;20440;-52
2022/09/10 13:25:52;;;;;;;11.00;6.90;;;;;;;;;;5073489;28;20056;-48
2022/09/10 13:28:51;;;;;;;6.97;4.50;;;;;;;;;;5074508;28;20053;-50
2022/09/10 13:31:20;;;;;;;7.82;5.22;;;;;;;;;;5074566;28;20056;-49
2022/09/10 13:34:09;;;;;;;10.15;6.18;;;;;;;;;;5074683;28;20064;-48
2022/09/10 13:36:46;;;;;;;6.47;4.07;;;;;;;;;;5049273;28;20060;-49
2022/09/10 13:39:34;;;;;;;10.20;6.45;;;;;;;;;;5074366;28;20063;-48
2022/09/10 13:42:22;;;;;;;9.65;5.25;;;;;;;;;;5074080;28;20075;-52
2022/09/10 13:45:00;;;;;;;6.63;4.50;;;;;;;;;;5074315;28;20048;-50
2022/09/10 13:47:35;;;;;;;9.63;5.63;;;;;;;;;;5074271;28;20121;-49
2022/09/10 13:50:14;;;;;;;11.80;4.30;;;;;;;;;;5074312;28;20064;-49
2022/09/10 13:52:47;;;;;;;6.20;3.95;;;;;;;;;;5068088;28;20131;-50
2022/09/10 13:55:17;;;;;;;8.73;5.60;;;;;;;;;;5053794;28;20045;-50
2022/09/10 13:57:47;;;;;;;11.73;7.03;;;;;;;;;;5054005;28;20060;-48
2022/09/10 14:00:20;;;;;;;9.50;5.60;;;;;;;;;;5053930;28;20114;-48
2022/09/10 14:02:47;;;;;;;12.45;6.95;;;;;;;;;;5054117;28;20111;-48
2022/09/10 14:05:24;;;;;;;14.70;7.75;;;;;;;;;;5054034;28;20052;-49
2022/09/10 14:07:54;;;;;;;11.15;6.97;;;;;;;;;;5053784;28;20045;-48
2022/09/10 14:10:22;;;;;;;9.85;5.47;;;;;;;;;;5073673;28;20477;-50
2022/09/10 14:12:50;;;;;;;8.45;5.35;;;;;;;;;;5073125;28;20464;-52
2022/09/10 14:15:20;;;;;;;9.60;5.50;;;;;;;;;;5067848;28;20068;-49
2022/09/10 14:17:50;;;;;;;8.23;5.25;;;;;;;;;;5053811;28;20076;-49
2022/09/10 14:20:18;;;;;;;9.63;6.55;;;;;;;;;;5069803;28;20149;-50
2022/09/10 14:22:48;;;;;;;9.35;6.00;;;;;;;;;;5062220;28;20068;-51
2022/09/10 14:25:30;;;;;;;10.98;7.20;;;;;;;;;;5054700;28;20049;-49
2022/09/10 14:28:14;;;;;;;8.93;5.47;;;;;;;;;;5053492;28;20133;-49
2022/09/10 14:30:47;;;;;;;9.73;5.75;;;;;;;;;;5051169;28;20053;-49
2022/09/10 14:33:31;;;;;;;7.90;4.78;;;;;;;;;;5053339;28;20134;-48
2022/09/10 14:35:59;;;;;;;14.07;8.30;;;;;;;;;;5064865;28;20065;-50
2022/09/10 14:38:32;;;;;;;13.50;7.18;;;;;;;;;;5056541;28;20118;-48
2022/09/10 14:41:01;;;;;;;9.90;6.25;;;;;;;;;;5072563;28;20132;-49
2022/09/10 14:43:32;;;;;;;12.88;7.72;;;;;;;;;;5062162;28;20075;-50
2022/09/10 14:46:43;;;;;;;11.60;6.07;;;;;;;;;;5053401;28;20084;-53
2022/09/10 14:49:27;;;;;;;9.82;5.20;;;;;;;;;;5063387;28;20048;-49
2022/09/10 14:51:54;;;;;;;13.43;8.68;;;;;;;;;;5073133;28;20060;-49
2022/09/10 14:54:23;;;;;;;11.57;5.90;;;;;;;;;;5066069;28;20045;-49
2022/09/10 14:56:53;;;;;;;12.15;6.32;;;;;;;;;;5058248;28;20060;-49
2022/09/10 14:59:24;;;;;;;9.30;5.78;;;;;;;;;;5052427;28;20049;-52
2022/09/10 15:01:55;;;;;;;13.05;7.90;;;;;;;;;;5052417;28;20061;-50
2022/09/10 15:04:23;;;;;;;10.30;5.70;;;;;;;;;;5054966;28;20049;-50
2022/09/10 15:06:52;;;;;;;12.00;7.50;;;;;;;;;;5075567;28;20461;-51
2022/09/10 15:09:21;;;;;;;10.43;6.75;;;;;;;;;;5076727;28;20389;-49
2022/09/10 15:11:54;;;;;;;7.93;4.70;;;;;;;;;;5076907;28;20067;-50
2022/09/10 15:14:23;;;;;;;14.75;8.65;;;;;;;;;;5076778;28;20056;-50